Time;durP1;ratioP1;P1;durP2;ratioP2;P2;SDS_P1;SDS_P2;PMS_P1;PMS_P2;Temp;Humidity;BMP_temperature;BMP_pressure;BME280_temperature;BME280_humidity;BME280_pressure;Samples;Min_cycle;Max_cycle;Signal;HPM_P1;HPM_P2
2021/03/17 00:01:22;;;;;;;;;;;;;;;18.31;62.31;99337.22;5022477;28;1417;-61
2021/03/17 00:03:47;;;;;;;;;;;;;;;18.27;63.08;99335.88;5014935;28;1435;-60
2021/03/17 00:06:13;;;;;;;;;;;;;;;18.26;63.18;99331.53;5021361;28;1329;-68
2021/03/17 00:08:38;;;;;;;;;;;;;;;18.33;62.51;99355.81;5017006;28;1530;-61
2021/03/17 00:11:04;;;;;;;;;;;;;;;18.31;63.28;99329.19;4995312;28;1448;-61
2021/03/17 00:13:29;;;;;;;;;;;;;;;18.24;62.61;99323.69;5003570;28;1910;-67
2021/03/17 00:15:57;;;;;;;;;;;;;;;18.21;63.08;99334.72;5006153;28;1774;-61
2021/03/17 00:18:22;;;;;;;;;;;;;;;18.23;63.34;99324.66;5007619;28;1367;-61
2021/03/17 00:20:48;;;;;;;;;;;;;;;18.28;62.64;99334.88;5016012;28;1576;-66
2021/03/17 00:23:13;;;;;;;;;;;;;;;18.30;63.17;99335.53;5012151;28;1601;-61
2021/03/17 00:25:39;;;;;;;;;;;;;;;18.31;63.25;99331.03;5020717;28;1375;-61
2021/03/17 00:28:05;;;;;;;;;;;;;;;18.33;63.38;99321.84;5007718;28;1705;-66
2021/03/17 00:30:31;;;;;;;;;;;;;;;18.30;63.41;99322.16;5011793;28;1570;-67
2021/03/17 00:32:56;;;;;;;;;;;;;;;18.33;63.54;99326.38;5015261;28;1376;-67
2021/03/17 00:35:22;;;;;;;;;;;;;;;18.32;63.56;99330.03;5013585;28;1891;-66
2021/03/17 00:37:48;;;;;;;;;;;;;;;18.33;63.98;99323.69;5005517;28;1399;-61
2021/03/17 00:40:13;;;;;;;;;;;;;;;18.40;63.71;99332.72;5018200;28;1514;-61
2021/03/17 00:42:38;;;;;;;;;;;;;;;18.42;63.59;99339.59;5015868;28;1594;-67
2021/03/17 00:45:04;;;;;;;;;;;;;;;18.37;63.82;99315.16;5016241;28;1368;-61
2021/03/17 00:47:29;;;;;;;;;;;;;;;18.42;64.03;99328.88;5006044;28;1357;-67
2021/03/17 00:49:54;;;;;;;;;;;;;;;18.42;64.06;99318.19;5007036;28;1606;-67
2021/03/17 00:52:20;;;;;;;;;;;;;;;18.38;64.36;99310.63;5018337;28;1479;-67
2021/03/17 00:54:45;;;;;;;;;;;;;;;18.37;63.58;99315.16;5010799;28;1947;-67
2021/03/17 00:57:10;;;;;;;;;;;;;;;18.40;64.69;99313.97;5012142;28;1655;-67
2021/03/17 00:59:35;;;;;;;;;;;;;;;18.34;64.90;99311.97;5009771;28;1558;-61
2021/03/17 01:02:00;;;;;;;;;;;;;;;18.36;64.31;99318.00;5008448;28;1525;-67
2021/03/17 01:04:26;;;;;;;;;;;;;;;18.36;64.34;99315.31;5020946;28;1609;-67
2021/03/17 01:06:51;;;;;;;;;;;;;;;18.42;64.05;99307.47;5006371;28;1695;-62
2021/03/17 01:09:16;;;;;;;;;;;;;;;18.43;63.61;99298.41;5013173;28;1344;-66
2021/03/17 01:11:42;;;;;;;;;;;;;;;18.44;63.53;99301.94;5014822;28;1487;-66
2021/03/17 01:14:07;;;;;;;;;;;;;;;18.45;63.45;99311.66;5014465;28;1975;-66
2021/03/17 01:16:32;;;;;;;;;;;;;;;18.43;63.96;99300.28;5011645;28;1585;-61
2021/03/17 01:18:58;;;;;;;;;;;;;;;18.43;64.42;99300.28;5008423;28;1371;-67
2021/03/17 01:21:23;;;;;;;;;;;;;;;18.44;63.93;99305.47;5014628;28;1379;-61
2021/03/17 01:23:48;;;;;;;;;;;;;;;18.44;63.68;99299.25;5013748;28;1758;-61
2021/03/17 01:26:13;;;;;;;;;;;;;;;18.43;64.00;99313.66;5004765;28;1546;-67
2021/03/17 01:28:39;;;;;;;;;;;;;;;18.42;64.17;99298.59;5017489;28;1597;-61
2021/03/17 01:31:04;;;;;;;;;;;;;;;18.40;63.84;99279.19;4991625;28;1424;-62
2021/03/17 01:33:30;;;;;;;;;;;;;;;18.43;64.27;99297.59;5016407;28;1881;-61
2021/03/17 01:35:55;;;;;;;;;;;;;;;18.46;63.71;99302.59;5005414;28;1779;-61
2021/03/17 01:38:22;;;;;;;;;;;;;;;18.49;62.93;99305.78;5009833;28;1322;-61
2021/03/17 01:40:47;;;;;;;;;;;;;;;18.48;63.25;99303.25;5016307;28;1324;-67
2021/03/17 01:43:13;;;;;;;;;;;;;;;18.46;63.13;99307.94;5014103;28;1715;-61
2021/03/17 01:45:39;;;;;;;;;;;;;;;18.49;63.50;99300.44;5013592;28;1491;-64
2021/03/17 01:48:05;;;;;;;;;;;;;;;18.47;63.28;99302.44;5005616;28;1357;-66
2021/03/17 01:50:32;;;;;;;;;;;;;;;18.42;63.72;99296.75;5015618;28;1535;-61
2021/03/17 01:53:17;;;;;;;;;;;;;;;18.44;64.00;99307.28;5002190;28;1538;-62
2021/03/17 01:55:43;;;;;;;;;;;;;;;18.42;63.72;99299.44;5000866;28;1344;-67
2021/03/17 01:58:09;;;;;;;;;;;;;;;18.42;63.81;99298.59;5008029;28;1751;-61
2021/03/17 02:00:35;;;;;;;;;;;;;;;18.39;63.63;99288.22;5013560;28;1601;-61
2021/03/17 02:03:00;;;;;;;;;;;;;;;18.36;63.89;99294.72;5013723;28;1659;-67
2021/03/17 02:05:28;;;;;;;;;;;;;;;18.40;63.82;99297.91;5013246;28;1383;-61
2021/03/17 02:07:54;;;;;;;;;;;;;;;18.38;62.90;99306.13;4992146;28;1457;-66
2021/03/17 02:10:19;;;;;;;;;;;;;;;18.36;63.79;99305.44;5020605;28;1419;-67
2021/03/17 02:12:45;;;;;;;;;;;;;;;18.39;62.85;99298.94;5015363;28;1335;-61
2021/03/17 02:15:13;;;;;;;;;;;;;;;18.29;63.12;99286.53;5019079;28;1914;-67
2021/03/17 02:17:40;;;;;;;;;;;;;;;18.26;63.63;99294.06;5008077;28;1584;-67
2021/03/17 02:20:24;;;;;;;;;;;;;;;18.26;63.02;99288.72;5016604;28;1649;-61
2021/03/17 02:22:58;;;;;;;;;;;;;;;18.24;62.94;99290.72;5014991;28;1430;-61
2021/03/17 02:25:42;;;;;;;;;;;;;;;18.19;63.78;99290.41;5022250;28;1376;-67
2021/03/17 02:28:23;;;;;;;;;;;;;;;18.17;63.01;99285.22;5009391;28;1825;-61
2021/03/17 02:31:15;;;;;;;;;;;;;;;18.15;62.68;99295.25;5010319;28;1751;-61
2021/03/17 02:33:40;;;;;;;;;;;;;;;18.17;62.35;99303.94;4974087;28;1963;-61
2021/03/17 02:36:09;;;;;;;;;;;;;;;18.17;62.43;99300.44;5007649;28;1629;-67
2021/03/17 02:38:37;;;;;;;;;;;;;;;18.15;61.93;99292.56;5012742;28;1578;-66
2021/03/17 02:41:02;;;;;;;;;;;;;;;18.16;62.67;99296.06;5021797;28;1451;-67
2021/03/17 02:43:32;;;;;;;;;;;;;;;18.12;61.98;99295.56;5017948;28;1352;-67
2021/03/17 02:46:04;;;;;;;;;;;;;;;18.08;61.73;99283.50;5016345;28;1695;-67
2021/03/17 02:48:30;;;;;;;;;;;;;;;18.06;62.09;99296.22;5012583;28;1743;-66
2021/03/17 02:51:00;;;;;;;;;;;;;;;18.02;62.43;99292.19;5003426;28;1726;-67
2021/03/17 02:53:26;;;;;;;;;;;;;;;17.99;62.32;99281.84;4995328;28;1948;-61
2021/03/17 02:55:54;;;;;;;;;;;;;;;18.04;62.03;99290.19;5012400;28;1379;-67
2021/03/17 02:58:20;;;;;;;;;;;;;;;18.06;60.92;99288.19;5007041;28;1257;-61
2021/03/17 03:03:14;;;;;;;;;;;;;;;18.05;61.59;99303.41;5003375;28;1981;-42
2021/03/17 03:05:40;;;;;;;;;;;;;;;18.04;61.75;99296.38;5010998;28;1460;-43
2021/03/17 03:08:06;;;;;;;;;;;;;;;18.04;60.92;99285.69;5007611;28;1728;-42
2021/03/17 03:10:32;;;;;;;;;;;;;;;18.04;60.87;99283.00;5030716;22;3796;-61
2021/03/17 03:12:59;;;;;;;;;;;;;;;18.01;60.97;99286.03;5023198;28;1451;-67
2021/03/17 03:15:26;;;;;;;;;;;;;;;17.99;60.79;99295.22;5029354;28;1906;-66
2021/03/17 03:17:51;;;;;;;;;;;;;;;18.00;61.64;99297.72;5012477;28;1675;-66
2021/03/17 03:20:19;;;;;;;;;;;;;;;18.01;60.86;99303.91;5007707;28;1691;-67
2021/03/17 03:22:45;;;;;;;;;;;;;;;17.99;61.34;99297.91;5028859;28;1307;-61
2021/03/17 03:25:11;;;;;;;;;;;;;;;17.99;61.04;99289.88;5014587;28;1394;-61
2021/03/17 03:27:37;;;;;;;;;;;;;;;17.97;61.09;99298.06;5028829;28;1462;-66
2021/03/17 03:30:07;;;;;;;;;;;;;;;18.02;60.27;99294.88;5033300;28;1411;-62
2021/03/17 03:32:33;;;;;;;;;;;;;;;17.99;60.21;99293.38;5026899;28;1474;-67
2021/03/17 03:34:58;;;;;;;;;;;;;;;18.03;60.66;99291.22;5005915;28;1894;-68
2021/03/17 03:37:23;;;;;;;;;;;;;;;17.98;60.80;99293.53;5024196;28;1419;-62
2021/03/17 03:39:49;;;;;;;;;;;;;;;17.99;61.53;99308.59;5025867;28;1590;-67
2021/03/17 03:42:14;;;;;;;;;;;;;;;17.99;60.27;99301.41;5027956;28;1355;-67
2021/03/17 03:44:39;;;;;;;;;;;;;;;18.00;60.75;99302.22;5027708;28;1482;-62
2021/03/17 03:47:05;;;;;;;;;;;;;;;17.97;60.01;99289.19;5030146;28;1315;-62
2021/03/17 03:49:30;;;;;;;;;;;;;;;17.97;60.45;99310.59;5025018;28;1308;-62
2021/03/17 03:52:01;;;;;;;;;;;;;;;17.97;60.05;99299.91;5026417;28;1336;-67
2021/03/17 03:54:30;;;;;;;;;;;;;;;17.97;59.86;99297.22;5012366;28;2011;-62
2021/03/17 03:57:02;;;;;;;;;;;;;;;17.89;60.06;99296.19;5012390;28;1347;-67
2021/03/17 03:59:32;;;;;;;;;;;;;;;17.77;62.35;99302.81;5031122;28;1550;-61
2021/03/17 04:02:00;;;;;;;;;;;;;;;17.68;63.02;99309.97;5013869;28;1467;-67
2021/03/17 04:04:29;;;;;;;;;;;;;;;17.65;63.35;99307.63;5030252;28;1390;-70
2021/03/17 04:06:56;;;;;;;;;;;;;;;17.65;64.02;99304.97;5024369;28;1590;-65
2021/03/17 04:09:47;;;;;;;;;;;;;;;17.63;64.49;99316.81;5024654;28;1296;-66
2021/03/17 04:12:13;;;;;;;;;;;;;;;17.57;64.96;99293.41;5027836;28;1391;-66
2021/03/17 04:14:40;;;;;;;;;;;;;;;17.51;65.07;99300.25;5012041;28;1910;-69
2021/03/17 04:17:14;;;;;;;;;;;;;;;17.52;65.43;99311.75;5029512;28;1562;-61
2021/03/17 04:19:43;;;;;;;;;;;;;;;17.55;64.93;99308.75;5026297;28;1364;-61
2021/03/17 04:22:09;;;;;;;;;;;;;;;17.54;65.60;99301.75;5026719;28;1406;-61
2021/03/17 04:24:35;;;;;;;;;;;;;;;17.48;65.90;99308.56;5033152;28;1577;-61
2021/03/17 04:27:01;;;;;;;;;;;;;;;17.52;65.43;99303.75;5013857;28;1454;-61
2021/03/17 04:29:27;;;;;;;;;;;;;;;17.49;65.27;99296.91;5004634;28;1552;-61
2021/03/17 04:31:59;;;;;;;;;;;;;;;17.51;65.86;99318.97;5095128;27;1725;-43
2021/03/17 04:34:26;;;;;;;;;;;;;;;17.48;66.48;99314.75;5068291;28;1477;-43
2021/03/17 04:36:53;;;;;;;;;;;;;;;17.44;66.57;99318.75;5064259;28;1384;-43
2021/03/17 04:39:19;;;;;;;;;;;;;;;17.41;66.68;99316.41;5069550;28;806;-43
2021/03/17 04:41:45;;;;;;;;;;;;;;;17.43;66.71;99321.59;5076122;28;1648;-43
2021/03/17 04:44:12;;;;;;;;;;;;;;;17.35;67.05;99311.69;5070649;28;1544;-43
2021/03/17 04:46:37;;;;;;;;;;;;;;;17.37;66.85;99312.38;5070940;28;1535;-43
2021/03/17 04:49:03;;;;;;;;;;;;;;;17.36;67.55;99332.06;5077929;28;1430;-43
2021/03/17 04:51:28;;;;;;;;;;;;;;;17.30;67.74;99306.81;5067272;28;1967;-44
2021/03/17 04:53:53;;;;;;;;;;;;;;;17.31;67.80;99326.38;5069526;28;1698;-44
2021/03/17 04:56:19;;;;;;;;;;;;;;;17.29;67.45;99323.03;5070014;28;1491;-43
2021/03/17 04:58:47;;;;;;;;;;;;;;;17.27;67.36;99317.00;5070563;28;1530;-43
2021/03/17 05:01:13;;;;;;;;;;;;;;;17.27;67.01;99315.16;5073115;28;1608;-43
2021/03/17 05:03:39;;;;;;;;;;;;;;;17.27;67.52;99323.19;5070802;28;1741;-43
2021/03/17 05:06:05;;;;;;;;;;;;;;;17.24;68.01;99315.47;5072171;28;2158;-43
2021/03/17 05:08:31;;;;;;;;;;;;;;;17.25;67.78;99335.88;5074087;28;1506;-43
2021/03/17 05:10:57;;;;;;;;;;;;;;;17.26;67.54;99323.34;5069524;28;1949;-43
2021/03/17 05:13:23;;;;;;;;;;;;;;;17.26;68.50;99315.31;5067694;28;1856;-43
2021/03/17 05:15:49;;;;;;;;;;;;;;;17.28;68.31;99327.50;5067734;28;1668;-43
2021/03/17 05:18:16;;;;;;;;;;;;;;;17.28;67.92;99330.19;5067087;28;1547;-43
2021/03/17 05:20:43;;;;;;;;;;;;;;;17.32;67.93;99324.53;5067228;28;1584;-43
2021/03/17 05:23:08;;;;;;;;;;;;;;;17.27;67.28;99333.03;5067717;28;1576;-43
2021/03/17 05:25:34;;;;;;;;;;;;;;;17.23;68.26;99328.97;5065251;28;1658;-43
2021/03/17 05:28:04;;;;;;;;;;;;;;;17.24;68.75;99323.50;5066942;28;1491;-43
2021/03/17 05:30:30;;;;;;;;;;;;;;;17.27;67.91;99338.38;5057884;28;2850;-45
2021/03/17 05:32:55;;;;;;;;;;;;;;;17.26;68.82;99332.19;5063973;28;1448;-45
2021/03/17 05:35:20;;;;;;;;;;;;;;;17.24;67.63;99328.00;5062216;28;1673;-45
2021/03/17 05:37:46;;;;;;;;;;;;;;;17.29;68.00;99336.38;5065397;28;1550;-46
2021/03/17 05:40:13;;;;;;;;;;;;;;;17.32;68.02;99341.41;5061113;28;1606;-46
2021/03/17 05:42:39;;;;;;;;;;;;;;;17.37;67.60;99339.09;5050376;28;1318;-45
2021/03/17 05:45:07;;;;;;;;;;;;;;;17.38;68.38;99340.75;5051952;28;1498;-45
2021/03/17 05:47:32;;;;;;;;;;;;;;;17.39;67.52;99344.25;5045735;28;1371;-47
2021/03/17 05:49:58;;;;;;;;;;;;;;;17.42;67.81;99346.63;5045024;28;1897;-46
2021/03/17 05:52:23;;;;;;;;;;;;;;;17.40;68.26;99346.78;5050248;28;1274;-45
2021/03/17 05:54:48;;;;;;;;;;;;;;;17.45;67.76;99351.66;5044324;28;1804;-45
2021/03/17 05:57:14;;;;;;;;;;;;;;;17.41;67.96;99345.81;5045630;28;1576;-46
2021/03/17 05:59:39;;;;;;;;;;;;;;;17.36;68.15;99350.78;5047680;28;1536;-46
2021/03/17 06:02:06;;;;;;;;;;;;;;;17.27;67.19;99344.56;5074279;28;1308;-46
2021/03/17 06:04:32;;;;;;;;;;;;;;;17.19;67.54;99352.53;5046447;28;2006;-46
2021/03/17 06:06:59;;;;;;;;;;;;;;;17.24;66.83;99354.72;5051346;28;1499;-46
2021/03/17 06:09:25;;;;;;;;;;;;;;;17.24;66.12;99358.22;5053773;28;1539;-47
2021/03/17 06:11:51;;;;;;;;;;;;;;;17.21;66.15;99365.72;5064105;28;1882;-46
2021/03/17 06:14:18;;;;;;;;;;;;;;;17.20;65.91;99364.03;5050006;28;1520;-48
2021/03/17 06:16:44;;;;;;;;;;;;;;;17.22;66.75;99376.25;5049451;28;1422;-47
2021/03/17 06:19:12;;;;;;;;;;;;;;;17.20;66.17;99380.91;5046237;28;1530;-46
2021/03/17 06:21:38;;;;;;;;;;;;;;;17.24;66.20;99378.75;5051521;28;1524;-48
2021/03/17 06:24:03;;;;;;;;;;;;;;;17.32;65.72;99373.47;5053523;28;1492;-46
2021/03/17 06:26:29;;;;;;;;;;;;;;;17.47;65.29;99387.91;5050058;28;1428;-46
2021/03/17 06:28:54;;;;;;;;;;;;;;;17.56;65.15;99378.09;5050802;28;1463;-46
2021/03/17 06:31:22;;;;;;;;;;;;;;;17.66;65.03;99388.66;5043461;28;1914;-47
2021/03/17 06:33:50;;;;;;;;;;;;;;;17.70;64.75;99388.16;5052344;28;1501;-46
2021/03/17 06:36:17;;;;;;;;;;;;;;;17.84;64.88;99397.44;5052564;28;1750;-46
2021/03/17 06:38:43;;;;;;;;;;;;;;;17.92;64.64;99391.31;5052752;28;1802;-46
2021/03/17 06:41:08;;;;;;;;;;;;;;;18.04;64.10;99383.81;5052470;28;1743;-46
2021/03/17 06:43:37;;;;;;;;;;;;;;;18.06;64.23;99389.84;5052823;28;1574;-47
2021/03/17 06:46:03;;;;;;;;;;;;;;;18.16;64.10;99398.56;5052701;28;1534;-46
2021/03/17 06:48:29;;;;;;;;;;;;;;;18.23;64.18;99394.25;5051117;28;1941;-46
2021/03/17 06:51:14;;;;;;;;;;;;;;;18.26;64.02;99393.06;5042384;28;1890;-46
2021/03/17 06:53:41;;;;;;;;;;;;;;;18.32;63.71;99394.25;5050879;28;1527;-46
2021/03/17 06:56:10;;;;;;;;;;;;;;;18.38;63.87;99393.59;5051472;28;1578;-47
2021/03/17 06:58:42;;;;;;;;;;;;;;;18.41;63.81;99395.94;5051008;28;1448;-46
2021/03/17 07:01:25;;;;;;;;;;;;;;;18.49;63.54;99390.59;5051577;28;1447;-47
2021/03/17 07:03:54;;;;;;;;;;;;;;;18.48;63.74;99388.91;5046702;28;1492;-46
2021/03/17 07:06:19;;;;;;;;;;;;;;;18.57;63.57;99401.31;5052237;28;1339;-46
2021/03/17 07:08:45;;;;;;;;;;;;;;;18.59;64.08;99399.31;5050613;28;1579;-46
2021/03/17 07:11:11;;;;;;;;;;;;;;;18.59;63.81;99398.47;5051504;28;1893;-46
2021/03/17 07:13:36;;;;;;;;;;;;;;;18.67;63.35;99401.16;5051260;28;1950;-46
2021/03/17 07:16:01;;;;;;;;;;;;;;;18.72;64.22;99398.84;5051475;28;1607;-46
2021/03/17 07:18:27;;;;;;;;;;;;;;;18.74;63.34;99406.69;5051594;28;1533;-46
2021/03/17 07:20:54;;;;;;;;;;;;;;;18.73;63.41;99416.56;5049333;28;1791;-46
2021/03/17 07:23:39;;;;;;;;;;;;;;;18.77;63.51;99409.88;5049402;28;1573;-46
2021/03/17 07:26:15;;;;;;;;;;;;;;;18.87;63.29;99418.59;5052445;28;2057;-47
2021/03/17 07:28:59;;;;;;;;;;;;;;;18.78;63.54;99416.06;5050527;28;1667;-47
2021/03/17 07:31:25;;;;;;;;;;;;;;;18.78;63.48;99413.38;5050101;28;1902;-46
2021/03/17 07:33:51;;;;;;;;;;;;;;;18.74;63.63;99401.31;5051641;28;1536;-46
2021/03/17 07:36:32;;;;;;;;;;;;;;;18.74;63.78;99406.69;5052065;28;1818;-46
2021/03/17 07:38:58;;;;;;;;;;;;;;;18.65;63.98;99414.72;5051581;28;1771;-46
2021/03/17 07:41:23;;;;;;;;;;;;;;;18.66;64.06;99411.03;5052354;28;1609;-46
2021/03/17 07:43:50;;;;;;;;;;;;;;;18.64;64.23;99425.59;5050513;28;1462;-46
2021/03/17 07:46:15;;;;;;;;;;;;;;;18.58;64.09;99424.44;5050119;28;1735;-46
2021/03/17 07:48:40;;;;;;;;;;;;;;;18.60;64.22;99425.09;5052504;28;1326;-46
2021/03/17 07:51:06;;;;;;;;;;;;;;;18.59;64.22;99431.44;5050073;28;1893;-43
2021/03/17 07:53:35;;;;;;;;;;;;;;;18.57;64.06;99421.91;5051061;28;1583;-44
2021/03/17 07:56:01;;;;;;;;;;;;;;;18.50;64.60;99421.72;5051863;28;1584;-44
2021/03/17 07:58:26;;;;;;;;;;;;;;;18.47;64.73;99438.13;5051712;28;1420;-43
2021/03/17 08:00:52;;;;;;;;;;;;;;;18.47;65.09;99432.75;5050884;28;1763;-42
2021/03/17 08:03:18;;;;;;;;;;;;;;;18.40;65.13;99426.38;5050598;28;1682;-44
2021/03/17 08:05:43;;;;;;;;;;;;;;;18.39;65.30;99432.75;5047234;28;1567;-43
2021/03/17 08:08:09;;;;;;;;;;;;;;;18.42;65.42;99419.03;5050983;28;1566;-45
2021/03/17 08:10:39;;;;;;;;;;;;;;;18.39;65.61;99427.41;5051048;28;1890;-43
2021/03/17 08:13:05;;;;;;;;;;;;;;;18.39;65.45;99430.06;5050008;28;1746;-44
2021/03/17 08:15:31;;;;;;;;;;;;;;;18.43;65.99;99442.13;5043460;28;1810;-44
2021/03/17 08:17:57;;;;;;;;;;;;;;;18.42;65.84;99422.56;5048542;28;1515;-44
2021/03/17 08:20:23;;;;;;;;;;;;;;;18.46;65.94;99426.59;5049496;28;1520;-46
2021/03/17 08:22:49;;;;;;;;;;;;;;;18.49;65.66;99430.75;5047343;28;1651;-47
2021/03/17 08:25:35;;;;;;;;;;;;;;;18.47;65.37;99422.06;5048308;28;1742;-46
2021/03/17 08:28:29;;;;;;;;;;;;;;;18.51;65.35;99434.09;5041795;28;1671;-46
2021/03/17 08:30:56;;;;;;;;;;;;;;;18.59;65.11;99433.28;5046447;28;2075;-46
2021/03/17 08:33:34;;;;;;;;;;;;;;;18.59;64.78;99426.09;5049865;28;1445;-46
2021/03/17 08:36:09;;;;;;;;;;;;;;;18.61;64.67;99423.25;5050272;28;1656;-46
2021/03/17 08:38:46;;;;;;;;;;;;;;;18.62;64.38;99425.78;5063633;28;1630;-46
2021/03/17 08:41:11;;;;;;;;;;;;;;;18.63;64.62;99440.00;5034107;28;1670;-47
2021/03/17 08:43:37;;;;;;;;;;;;;;;18.62;64.61;99441.84;5049674;28;1504;-50
2021/03/17 08:46:06;;;;;;;;;;;;;;;18.62;64.88;99441.84;5048888;28;1403;-47
2021/03/17 08:48:51;;;;;;;;;;;;;;;18.61;64.90;99440.16;5048553;28;1654;-46
2021/03/17 08:51:16;;;;;;;;;;;;;;;18.53;65.25;99445.50;5032222;28;1890;-46
2021/03/17 08:53:42;;;;;;;;;;;;;;;18.50;65.40;99440.44;5050045;28;1535;-46
2021/03/17 08:56:07;;;;;;;;;;;;;;;18.60;65.27;99451.88;5048667;28;1727;-46
2021/03/17 08:58:32;;;;;;;;;;;;;;;18.60;64.87;99440.31;5050208;28;1501;-46
2021/03/17 09:00:59;;;;;;;;;;;;;;;18.63;65.55;99453.38;5049906;28;1435;-45
2021/03/17 09:03:27;;;;;;;;;;;;;;;18.60;65.11;99456.38;5050350;28;1728;-47
2021/03/17 09:06:05;;;;;;;;;;;;;;;18.61;65.13;99456.22;5050614;28;1617;-46
2021/03/17 09:08:46;;;;;;;;;;;;;;;18.54;65.10;99447.16;5050680;28;1350;-46
2021/03/17 09:11:31;;;;;;;;;;;;;;;18.57;65.19;99459.38;5045403;28;1885;-46
2021/03/17 09:13:58;;;;;;;;;;;;;;;18.53;65.34;99450.84;5050702;28;1961;-46
2021/03/17 09:16:25;;;;;;;;;;;;;;;18.53;65.16;99458.88;5047676;28;1504;-46
2021/03/17 09:19:06;;;;;;;;;;;;;;;18.48;65.58;99464.72;5047549;28;1694;-47
2021/03/17 09:21:36;;;;;;;;;;;;;;;18.49;65.34;99470.91;5053021;28;1721;-46
2021/03/17 09:24:01;;;;;;;;;;;;;;;18.51;65.40;99468.09;5052424;28;1594;-46
2021/03/17 09:26:27;;;;;;;;;;;;;;;18.48;65.02;99471.91;5051130;28;1436;-46
2021/03/17 09:28:53;;;;;;;;;;;;;;;18.46;65.17;99458.72;5051490;28;1735;-46
2021/03/17 09:31:18;;;;;;;;;;;;;;;18.49;65.43;99462.88;5051679;28;1985;-46
2021/03/17 09:33:44;;;;;;;;;;;;;;;18.45;65.44;99464.22;5054278;28;1643;-45
2021/03/17 09:36:09;;;;;;;;;;;;;;;18.44;65.73;99467.88;5053928;28;1701;-44
2021/03/17 09:38:36;;;;;;;;;;;;;;;18.43;65.48;99479.59;5053763;28;1754;-44
2021/03/17 09:41:07;;;;;;;;;;;;;;;18.43;65.98;99482.28;5053642;28;1573;-45
2021/03/17 09:43:32;;;;;;;;;;;;;;;18.43;65.62;99472.41;5053034;28;1468;-44
2021/03/17 09:45:57;;;;;;;;;;;;;;;18.48;65.81;99477.25;5053201;28;1544;-44
2021/03/17 09:48:23;;;;;;;;;;;;;;;18.46;65.75;99484.63;5050635;28;1660;-45
2021/03/17 09:50:55;;;;;;;;;;;;;;;18.44;65.94;99478.59;5049162;28;1953;-44
2021/03/17 09:53:20;;;;;;;;;;;;;;;18.42;66.00;99485.94;5053710;28;1560;-44
2021/03/17 09:55:45;;;;;;;;;;;;;;;18.48;65.45;99487.97;5041943;28;1392;-44
2021/03/17 09:58:10;;;;;;;;;;;;;;;18.49;65.53;99484.31;5051692;28;1870;-43
2021/03/17 10:00:37;;;;;;;;;;;;;;;18.49;65.35;99484.31;5052868;28;1807;-44
2021/03/17 10:03:03;;;;;;;;;;;;;;;18.51;65.17;99481.47;5049026;28;1489;-44
2021/03/17 10:05:29;;;;;;;;;;;;;;;18.56;65.12;99490.69;5052866;28;1623;-47
2021/03/17 10:07:54;;;;;;;;;;;;;;;18.49;65.42;99485.13;5053572;28;1480;-44
2021/03/17 10:10:21;;;;;;;;;;;;;;;18.49;66.04;99500.34;5054490;28;1897;-44
2021/03/17 10:12:46;;;;;;;;;;;;;;;18.48;65.82;99504.03;5053101;28;1623;-44
2021/03/17 10:15:13;;;;;;;;;;;;;;;18.48;65.77;99499.53;5053385;28;1516;-43
2021/03/17 10:17:38;;;;;;;;;;;;;;;18.47;65.81;99510.41;5053383;28;1565;-44
2021/03/17 10:20:04;;;;;;;;;;;;;;;18.45;66.09;99499.84;5052883;28;1348;-44
2021/03/17 10:22:30;;;;;;;;;;;;;;;18.45;65.96;99493.66;5053547;28;1426;-44
2021/03/17 10:24:56;;;;;;;;;;;;;;;18.43;66.17;99490.31;5054438;28;864;-44
2021/03/17 10:27:23;;;;;;;;;;;;;;;18.47;66.01;99513.06;5052525;28;1678;-44
2021/03/17 10:29:50;;;;;;;;;;;;;;;18.45;66.11;99515.91;5052262;28;1910;-45
2021/03/17 10:32:17;;;;;;;;;;;;;;;18.42;66.09;99504.69;5050533;28;1827;-44
2021/03/17 10:34:42;;;;;;;;;;;;;;;18.49;65.43;99513.75;5052025;28;1664;-43
2021/03/17 10:37:15;;;;;;;;;;;;;;;18.53;65.59;99517.78;5044139;28;1718;-44
2021/03/17 10:39:41;;;;;;;;;;;;;;;18.54;65.21;99523.97;5053942;28;880;-44
2021/03/17 10:42:22;;;;;;;;;;;;;;;18.49;65.40;99511.91;5051247;28;1663;-44
2021/03/17 10:45:00;;;;;;;;;;;;;;;18.52;65.35;99510.72;5054367;28;1480;-44
2021/03/17 10:47:26;;;;;;;;;;;;;;;18.48;65.45;99504.88;5051747;28;1364;-44
2021/03/17 10:49:51;;;;;;;;;;;;;;;18.51;65.69;99524.31;5053059;28;1949;-44
2021/03/17 10:52:16;;;;;;;;;;;;;;;18.52;65.65;99518.75;5051545;28;1668;-43
2021/03/17 10:54:43;;;;;;;;;;;;;;;18.51;65.65;99514.41;5050420;28;2035;-45
2021/03/17 10:57:09;;;;;;;;;;;;;;;18.51;65.77;99513.59;5047672;28;1421;-44
2021/03/17 10:59:38;;;;;;;;;;;;;;;18.57;65.65;99518.28;5046816;28;1490;-44
2021/03/17 11:02:22;;;;;;;;;;;;;;;18.58;65.70;99515.47;5053109;28;1770;-43
2021/03/17 11:05:06;;;;;;;;;;;;;;;18.14;66.22;99502.22;5052794;28;1748;-44
2021/03/17 11:07:49;;;;;;;;;;;;;;;18.38;65.60;99522.06;5049882;28;1546;-45
2021/03/17 11:10:35;;;;;;;;;;;;;;;18.48;64.84;99517.41;5046777;28;1859;-44
2021/03/17 11:13:01;;;;;;;;;;;;;;;18.52;65.17;99523.28;5051406;28;1574;-45
2021/03/17 11:15:28;;;;;;;;;;;;;;;18.61;65.38;99512.44;5050144;28;1643;-45
2021/03/17 11:17:54;;;;;;;;;;;;;;;18.62;65.23;99521.31;5054938;28;1699;-44
2021/03/17 11:20:19;;;;;;;;;;;;;;;18.63;65.01;99518.47;5052512;28;1613;-45
2021/03/17 11:22:45;;;;;;;;;;;;;;;18.60;64.90;99513.44;5050304;28;1446;-45
2021/03/17 11:25:11;;;;;;;;;;;;;;;18.60;64.88;99524.16;5051617;28;1602;-44
2021/03/17 11:27:36;;;;;;;;;;;;;;;18.59;64.91;99516.28;5052548;28;1795;-44
2021/03/17 11:30:02;;;;;;;;;;;;;;;18.15;66.17;99525.31;5048900;28;1910;-44
2021/03/17 11:32:30;;;;;;;;;;;;;;;18.40;65.27;99528.09;5050974;28;1754;-44
2021/03/17 11:34:55;;;;;;;;;;;;;;;18.48;65.41;99520.94;5049403;28;1655;-45
2021/03/17 11:37:21;;;;;;;;;;;;;;;18.53;65.03;99519.63;5050731;28;1392;-45
2021/03/17 11:39:46;;;;;;;;;;;;;;;18.53;64.86;99516.94;5051394;28;1513;-44
2021/03/17 11:42:11;;;;;;;;;;;;;;;18.51;65.04;99516.28;5051871;28;1433;-45
2021/03/17 11:44:37;;;;;;;;;;;;;;;18.55;64.75;99515.78;5034340;28;1668;-45
2021/03/17 11:47:02;;;;;;;;;;;;;;;18.52;65.02;99505.38;5050159;28;1560;-44
2021/03/17 11:49:27;;;;;;;;;;;;;;;18.53;64.88;99517.78;5051846;28;1459;-45
2021/03/17 11:51:53;;;;;;;;;;;;;;;18.49;64.89;99514.56;5052419;28;1902;-45
2021/03/17 11:54:18;;;;;;;;;;;;;;;18.45;65.35;99520.44;5051451;28;1462;-44
2021/03/17 11:56:44;;;;;;;;;;;;;;;18.44;65.20;99502.69;5052092;28;1636;-45
2021/03/17 11:59:09;;;;;;;;;;;;;;;18.45;65.27;99517.75;5047006;28;1546;-45
2021/03/17 12:01:34;;;;;;;;;;;;;;;18.44;65.08;99508.03;5051507;28;1584;-44
2021/03/17 12:04:00;;;;;;;;;;;;;;;18.38;64.79;99495.28;5053418;28;1501;-45
2021/03/17 12:06:25;;;;;;;;;;;;;;;18.45;65.39;99509.72;5052869;28;1456;-45
2021/03/17 12:08:50;;;;;;;;;;;;;;;18.46;65.12;99514.91;5051804;28;1752;-45
2021/03/17 12:11:16;;;;;;;;;;;;;;;18.44;65.17;99518.72;5051818;28;1885;-44
2021/03/17 12:13:42;;;;;;;;;;;;;;;18.46;65.30;99520.28;5050282;28;1613;-45
2021/03/17 12:16:07;;;;;;;;;;;;;;;18.44;65.36;99510.72;5051233;28;1141;-44
2021/03/17 12:18:32;;;;;;;;;;;;;;;18.44;65.40;99508.88;5052384;28;1742;-45
2021/03/17 12:20:58;;;;;;;;;;;;;;;18.47;65.45;99529.13;5050780;28;1521;-45
2021/03/17 12:23:23;;;;;;;;;;;;;;;18.42;65.29;99532.31;5049868;28;1531;-45
2021/03/17 12:25:48;;;;;;;;;;;;;;;18.47;65.04;99529.13;5050875;28;1316;-44
2021/03/17 12:28:14;;;;;;;;;;;;;;;18.40;65.20;99520.94;5050215;28;1713;-44
2021/03/17 12:30:39;;;;;;;;;;;;;;;18.39;65.21;99521.06;5046710;28;1894;-46
2021/03/17 12:33:05;;;;;;;;;;;;;;;18.40;65.59;99528.09;5050454;28;1358;-45
2021/03/17 12:35:30;;;;;;;;;;;;;;;18.37;65.02;99518.56;5050914;28;1791;-45
2021/03/17 12:37:56;;;;;;;;;;;;;;;18.40;65.45;99533.44;5049460;28;1573;-45
2021/03/17 12:40:23;;;;;;;;;;;;;;;18.41;65.49;99519.06;5051985;28;1636;-45
2021/03/17 12:42:48;;;;;;;;;;;;;;;18.40;65.52;99530.75;5050623;28;1409;-45
2021/03/17 12:45:15;;;;;;;;;;;;;;;18.37;65.69;99552.53;5050414;28;1525;-45
2021/03/17 12:47:40;;;;;;;;;;;;;;;18.39;66.04;99553.19;5051181;28;1468;-45
2021/03/17 12:50:07;;;;;;;;;;;;;;;18.36;66.30;99550.81;5051254;28;1925;-44
2021/03/17 12:52:33;;;;;;;;;;;;;;;18.33;66.04;99537.78;5052198;28;1533;-44
2021/03/17 12:54:58;;;;;;;;;;;;;;;18.32;65.74;99552.16;5054839;28;1485;-45
2021/03/17 12:57:23;;;;;;;;;;;;;;;18.27;65.75;99553.47;5049468;28;1965;-45
2021/03/17 12:59:49;;;;;;;;;;;;;;;18.33;65.94;99564.53;5061592;28;1736;-46
2021/03/17 13:02:14;;;;;;;;;;;;;;;18.32;65.94;99562.84;5053265;28;1509;-46